Check out our new BloomSky Weather System.

Active alerts

Galveston, TX
  Details for Galveston, TX Coastal Flood Advisory  +2 additional alerts
Houston, TX
  Details for Houston, TX Flash Flood Watch
Fort Bend, TX
  Details for Fort Bend, TX Flash Flood Watch


Thunder radar  blitzortung!


Rain radar more information rain snow radar


Visit our other weather sites:

Template documentation
and downloads

And another site



Weather Underground History page Text

Daily Summary for June 13, 2017 Units:  English    Metric   Both
« Previous Day
Next Day »
Daily Weekly Monthly Yearly Custom
  High: Low: Average:
Temperature: TemperatureF °F 78.3 °F 83.6 °F
Dew Point: DewpointF °F 74.1 °F 76.4 °F
Humidity: Humidity % 58 % 80 %
Wind Speed: WindSpeedMPH mph 0.0 mph 5.1 mph
Wind Gust: WindSpeedGustMPH mph - -
Wind:- - SE
Pressure: PressureIn in 29.86 in -
Precipitation: 0.08 in    
Historical Graphs
 
 
Tabular Data for June 13, 2017
Time Temperature Dew Point Pressure Wind Wind Speed Wind Gust Humidity Rainfall Rate (Hourly)
TemperatureF °F DewpointF °F PressureIn in Calm     Humidity % HourlyPrecipIn in
00:01 81.0 °F 77.4 °F 29.91 in ESE 3.0 mph 10.0 mph 89 % 0.00 in
00:06 80.4 °F 76.1 °F 29.91 in SE 5.0 mph 10.0 mph 87 % 0.00 in
00:11 80.1 °F 76.1 °F 29.92 in SE 2.0 mph 10.0 mph 88 % 0.00 in
00:16 79.7 °F 76.1 °F 29.91 in ESE 3.0 mph 10.0 mph 89 % 0.00 in
00:21 79.5 °F 75.9 °F 29.92 in SSE 2.0 mph 10.0 mph 89 % 0.00 in
00:26 79.3 °F 75.7 °F 29.91 in SSE 2.0 mph 8.0 mph 89 % 0.00 in
00:31 79.3 °F 75.7 °F 29.92 in SE 3.0 mph 5.0 mph 89 % 0.00 in
00:36 79.3 °F 75.7 °F 29.91 in SE 3.0 mph 7.0 mph 89 % 0.00 in
00:41 79.2 °F 75.6 °F 29.91 in ESE 5.0 mph 8.0 mph 89 % 0.00 in
00:46 79.2 °F 75.6 °F 29.91 in SE 2.0 mph 9.0 mph 89 % 0.00 in
00:51 79.0 °F 75.4 °F 29.91 in ESE 2.0 mph 9.0 mph 89 % 0.00 in
00:56 79.0 °F 75.7 °F 29.91 in ESE 3.0 mph 9.0 mph 90 % 0.00 in
01:01 78.8 °F 75.6 °F 29.91 in ESE 3.0 mph 6.0 mph 90 % 0.00 in
01:06 78.6 °F 75.4 °F 29.91 in SE 3.0 mph 6.0 mph 90 % 0.00 in
01:11 78.6 °F 75.7 °F 29.91 in SE 2.0 mph 6.0 mph 91 % 0.00 in
01:16 78.6 °F 75.7 °F 29.91 in South 1.0 mph 6.0 mph 91 % 0.00 in
01:21 78.4 °F 75.6 °F 29.91 in ESE 2.0 mph 5.0 mph 91 % 0.00 in
01:26 78.4 °F 75.9 °F 29.91 in SE 3.0 mph 5.0 mph 92 % 0.00 in
01:31 78.4 °F 75.9 °F 29.91 in ESE 3.0 mph 5.0 mph 92 % 0.00 in
01:36 78.3 °F 75.7 °F 29.91 in ESE 2.0 mph 5.0 mph 92 % 0.00 in
01:41 78.3 °F 75.7 °F 29.90 in South 4.0 mph 5.0 mph 92 % 0.00 in
01:46 78.4 °F 76.3 °F 29.90 in SE 4.0 mph 5.0 mph 93 % 0.00 in
01:51 78.4 °F 76.3 °F 29.90 in East 4.0 mph 6.0 mph 93 % 0.00 in
01:56 78.4 °F 76.3 °F 29.90 in SSE 2.0 mph 6.0 mph 93 % 0.00 in
02:01 78.4 °F 76.3 °F 29.90 in SSE 3.0 mph 6.0 mph 93 % 0.00 in
02:06 78.4 °F 76.3 °F 29.90 in SE 4.0 mph 6.0 mph 93 % 0.00 in
02:11 78.6 °F 76.5 °F 29.90 in SE 3.0 mph 6.0 mph 93 % 0.00 in
02:16 78.6 °F 76.5 °F 29.90 in ESE 3.0 mph 8.0 mph 93 % 0.00 in
02:21 78.6 °F 76.5 °F 29.90 in ESE 7.0 mph 8.0 mph 93 % 0.00 in
02:26 78.6 °F 76.5 °F 29.90 in SE 6.0 mph 8.0 mph 93 % 0.00 in
02:31 78.6 °F 76.5 °F 29.90 in SE 3.0 mph 7.0 mph 93 % 0.00 in
02:36 78.6 °F 76.5 °F 29.90 in SSE 3.0 mph 7.0 mph 93 % 0.00 in
02:41 78.8 °F 76.6 °F 29.89 in SE 2.0 mph 8.0 mph 93 % 0.00 in
02:47 78.6 °F 76.5 °F 29.89 in SSE 4.0 mph 8.0 mph 93 % 0.00 in
02:51 78.6 °F 76.5 °F 29.89 in SE 2.0 mph 9.0 mph 93 % 0.00 in
02:56 78.6 °F 76.5 °F 29.89 in SE 4.0 mph 9.0 mph 93 % 0.00 in
03:01 78.6 °F 76.5 °F 29.89 in SE 4.0 mph 9.0 mph 93 % 0.00 in
03:06 78.6 °F 76.5 °F 29.89 in ESE 2.0 mph 8.0 mph 93 % 0.00 in
03:12 78.6 °F 76.5 °F 29.89 in East 3.0 mph 8.0 mph 93 % 0.00 in
03:17 78.6 °F 76.5 °F 29.89 in SE 3.0 mph 8.0 mph 93 % 0.00 in
03:22 78.6 °F 76.5 °F 29.89 in SE 4.0 mph 8.0 mph 93 % 0.00 in
03:27 78.6 °F 76.5 °F 29.88 in East 5.0 mph 8.0 mph 93 % 0.00 in
03:32 78.6 °F 76.5 °F 29.88 in ESE 5.0 mph 8.0 mph 93 % 0.00 in
03:37 78.6 °F 76.5 °F 29.88 in South 4.0 mph 8.0 mph 93 % 0.00 in
03:42 78.6 °F 76.5 °F 29.88 in ESE 4.0 mph 8.0 mph 93 % 0.00 in
03:47 78.4 °F 76.3 °F 29.88 in ESE 3.0 mph 7.0 mph 93 % 0.00 in
03:52 78.4 °F 76.3 °F 29.88 in East 4.0 mph 6.0 mph 93 % 0.00 in
03:57 78.4 °F 76.3 °F 29.88 in SSE 2.0 mph 7.0 mph 93 % 0.00 in
04:02 78.3 °F 76.1 °F 29.88 in SE 2.0 mph 7.0 mph 93 % 0.00 in
04:07 78.3 °F 76.1 °F 29.88 in ESE 3.0 mph 7.0 mph 93 % 0.00 in
04:12 78.3 °F 76.1 °F 29.88 in SE 3.0 mph 8.0 mph 93 % 0.00 in
04:17 78.4 °F 76.3 °F 29.88 in SE 2.0 mph 8.0 mph 93 % 0.00 in
04:22 78.4 °F 76.3 °F 29.89 in SE 3.0 mph 8.0 mph 93 % 0.00 in
04:27 78.6 °F 76.5 °F 29.89 in SE 2.0 mph 6.0 mph 93 % 0.00 in
04:32 78.6 °F 76.5 °F 29.89 in SE 8.0 mph 9.0 mph 93 % 0.00 in
04:37 78.8 °F 76.6 °F 29.89 in SSE 3.0 mph 9.0 mph 93 % 0.00 in
04:42 78.8 °F 76.6 °F 29.88 in ESE 5.0 mph 9.0 mph 93 % 0.00 in
04:47 79.0 °F 76.8 °F 29.88 in SE 5.0 mph 8.0 mph 93 % 0.00 in
04:52 79.0 °F 76.8 °F 29.89 in SE 3.0 mph 7.0 mph 93 % 0.00 in
04:57 79.0 °F 76.8 °F 29.88 in SE 3.0 mph 8.0 mph 93 % 0.00 in
05:02 79.0 °F 76.8 °F 29.88 in SE 4.0 mph 8.0 mph 93 % 0.00 in
05:07 79.0 °F 76.8 °F 29.88 in SSE 2.0 mph 9.0 mph 93 % 0.00 in
05:12 79.0 °F 76.8 °F 29.88 in South 6.0 mph 9.0 mph 93 % 0.00 in
05:17 79.0 °F 76.5 °F 29.88 in SSE 4.0 mph 10.0 mph 92 % 0.00 in
05:22 79.0 °F 76.5 °F 29.88 in SSE 3.0 mph 10.0 mph 92 % 0.00 in
05:27 79.0 °F 76.5 °F 29.88 in SSE 3.0 mph 10.0 mph 92 % 0.00 in
05:32 78.8 °F 76.3 °F 29.88 in SE 5.0 mph 9.0 mph 92 % 0.00 in
05:37 78.8 °F 76.3 °F 29.88 in SE 3.0 mph 9.0 mph 92 % 0.00 in
05:42 78.6 °F 75.7 °F 29.88 in SSE 4.0 mph 9.0 mph 91 % 0.00 in
05:47 78.6 °F 75.7 °F 29.89 in SE 5.0 mph 9.0 mph 91 % 0.00 in
05:52 78.6 °F 75.7 °F 29.89 in SE 3.0 mph 9.0 mph 91 % 0.00 in
05:58 78.6 °F 75.7 °F 29.89 in SSW 4.0 mph 7.0 mph 91 % 0.00 in
06:03 78.6 °F 75.7 °F 29.89 in SSW 3.0 mph 7.0 mph 91 % 0.00 in
06:08 78.8 °F 75.9 °F 29.89 in ESE 4.0 mph 7.0 mph 91 % 0.00 in
06:13 78.8 °F 75.6 °F 29.89 in SE 4.0 mph 7.0 mph 90 % 0.00 in
06:18 78.8 °F 75.6 °F 29.90 in SE 3.0 mph 7.0 mph 90 % 0.00 in
06:23 78.8 °F 75.6 °F 29.89 in SE 2.0 mph 7.0 mph 90 % 0.00 in
06:28 78.8 °F 75.2 °F 29.89 in SE 2.0 mph 7.0 mph 89 % 0.00 in
06:33 79.0 °F 75.4 °F 29.90 in SSE 2.0 mph 7.0 mph 89 % 0.00 in
06:38 79.0 °F 75.4 °F 29.90 in South 1.0 mph 7.0 mph 89 % 0.00 in
06:43 79.0 °F 75.4 °F 29.90 in ESE 5.0 mph 7.0 mph 89 % 0.00 in
06:48 79.0 °F 75.4 °F 29.90 in East 4.0 mph 6.0 mph 89 % 0.00 in
06:53 79.0 °F 75.4 °F 29.90 in SE 2.0 mph 6.0 mph 89 % 0.00 in
06:58 79.0 °F 75.4 °F 29.90 in SE 3.0 mph 6.0 mph 89 % 0.00 in
07:03 79.2 °F 75.6 °F 29.91 in ESE 3.0 mph 6.0 mph 89 % 0.00 in
07:08 79.2 °F 75.6 °F 29.91 in SSE 1.0 mph 5.0 mph 89 % 0.00 in
07:13 79.2 °F 75.6 °F 29.90 in ENE 4.0 mph 4.0 mph 89 % 0.00 in
07:18 79.2 °F 75.6 °F 29.91 in SE 2.0 mph 6.0 mph 89 % 0.00 in
07:23 79.2 °F 75.6 °F 29.91 in ESE 3.0 mph 6.0 mph 89 % 0.00 in
07:28 79.3 °F 75.7 °F 29.91 in Calm   6.0 mph 89 % 0.00 in
07:33 79.3 °F 75.7 °F 29.91 in SSE 1.0 mph 6.0 mph 89 % 0.00 in
07:38 79.5 °F 76.3 °F 29.91 in East 2.0 mph 6.0 mph 90 % 0.00 in
07:43 79.5 °F 75.9 °F 29.91 in Calm   6.0 mph 89 % 0.00 in
07:48 79.5 °F 75.9 °F 29.92 in ESE 3.0 mph 4.0 mph 89 % 0.00 in
07:53 79.7 °F 76.5 °F 29.92 in ESE 2.0 mph 4.0 mph 90 % 0.00 in
07:58 79.9 °F 76.6 °F 29.92 in ESE 2.0 mph 5.0 mph 90 % 0.00 in
08:03 80.1 °F 76.8 °F 29.92 in ESE 2.0 mph 5.0 mph 90 % 0.00 in
08:08 80.2 °F 77.0 °F 29.93 in ESE 2.0 mph 5.0 mph 90 % 0.00 in
08:13 80.6 °F 77.4 °F 29.93 in SSE 3.0 mph 4.0 mph 90 % 0.00 in
08:18 80.8 °F 77.5 °F 29.93 in SSE 4.0 mph 6.0 mph 90 % 0.00 in
08:24 81.0 °F 77.7 °F 29.93 in ESE 1.0 mph 8.0 mph 90 % 0.00 in
08:29 81.1 °F 77.5 °F 29.93 in SSE 1.0 mph 8.0 mph 89 % 0.00 in
08:34 81.3 °F 77.7 °F 29.94 in SSE 3.0 mph 8.0 mph 89 % 0.00 in
08:39 81.5 °F 77.9 °F 29.94 in East 3.0 mph 7.0 mph 89 % 0.00 in
08:44 81.7 °F 78.1 °F 29.94 in SE 4.0 mph 9.0 mph 89 % 0.00 in
08:49 81.9 °F 78.3 °F 29.94 in SE 3.0 mph 9.0 mph 89 % 0.00 in
08:54 82.0 °F 78.1 °F 29.94 in ESE 7.0 mph 9.0 mph 88 % 0.00 in
08:59 82.0 °F 78.1 °F 29.94 in ESE 4.0 mph 10.0 mph 88 % 0.00 in
09:04 82.2 °F 78.3 °F 29.94 in SE 7.0 mph 10.0 mph 88 % 0.00 in
09:09 82.2 °F 78.3 °F 29.94 in SE 5.0 mph 10.0 mph 88 % 0.00 in
09:14 82.6 °F 78.6 °F 29.94 in SE 7.0 mph 9.0 mph 88 % 0.00 in
09:19 82.8 °F 78.4 °F 29.94 in ESE 4.0 mph 9.0 mph 87 % 0.00 in
09:24 82.8 °F 78.1 °F 29.94 in SE 7.0 mph 9.0 mph 86 % 0.00 in
09:29 82.9 °F 78.3 °F 29.94 in ESE 5.0 mph 10.0 mph 86 % 0.00 in
09:34 83.3 °F 78.6 °F 29.94 in SSE 6.0 mph 10.0 mph 86 % 0.00 in
09:39 83.7 °F 78.3 °F 29.94 in SE 7.0 mph 12.0 mph 84 % 0.00 in
09:44 84.0 °F 77.9 °F 29.94 in SE 3.0 mph 12.0 mph 82 % 0.00 in
09:49 83.8 °F 77.7 °F 29.94 in SE 9.0 mph 14.0 mph 82 % 0.00 in
09:54 84.2 °F 78.4 °F 29.94 in ESE 7.0 mph 14.0 mph 83 % 0.00 in
09:59 84.9 °F 78.1 °F 29.94 in SSE 7.0 mph 14.0 mph 80 % 0.00 in
10:04 85.6 °F 78.4 °F 29.94 in South 7.0 mph 11.0 mph 79 % 0.00 in
10:09 85.6 °F 77.9 °F 29.94 in SSW 6.0 mph 12.0 mph 78 % 0.00 in
10:14 85.6 °F 77.9 °F 29.94 in ESE 7.0 mph 14.0 mph 78 % 0.00 in
10:19 85.8 °F 77.7 °F 29.94 in SE 7.0 mph 14.0 mph 77 % 0.00 in
10:24 86.2 °F 78.4 °F 29.94 in ESE 4.0 mph 14.0 mph 78 % 0.00 in
10:29 86.4 °F 77.9 °F 29.94 in ESE 6.0 mph 12.0 mph 76 % 0.00 in
10:34 85.8 °F 77.7 °F 29.94 in ESE 7.0 mph 12.0 mph 77 % 0.00 in
10:39 85.8 °F 77.7 °F 29.94 in SSE 4.0 mph 10.0 mph 77 % 0.00 in
10:44 85.8 °F 77.7 °F 29.94 in SSE 4.0 mph 11.0 mph 77 % 0.00 in
10:49 86.2 °F 77.4 °F 29.94 in SE 11.0 mph 12.0 mph 75 % 0.00 in
10:54 86.2 °F 77.0 °F 29.93 in ESE 6.0 mph 12.0 mph 74 % 0.00 in
10:59 86.7 °F 77.4 °F 29.93 in ESE 9.0 mph 12.0 mph 74 % 0.00 in
11:04 87.4 °F 76.8 °F 29.93 in SE 10.0 mph 11.0 mph 71 % 0.00 in
11:09 88.0 °F 77.0 °F 29.93 in ESE 8.0 mph 11.0 mph 70 % 0.00 in
11:14 88.3 °F 77.4 °F 29.93 in SE 12.0 mph 14.0 mph 70 % 0.00 in
11:19 88.2 °F 75.7 °F 29.93 in ESE 7.0 mph 14.0 mph 67 % 0.00 in
11:24 88.3 °F 77.4 °F 29.93 in SSW 6.0 mph 14.0 mph 70 % 0.00 in
11:29 88.0 °F 77.0 °F 29.94 in East 10.0 mph 14.0 mph 70 % 0.00 in
11:34 88.0 °F 77.4 °F 29.94 in SE 5.0 mph 14.0 mph 71 % 0.00 in
11:39 87.6 °F 75.7 °F 29.94 in SE 7.0 mph 12.0 mph 68 % 0.00 in
11:44 87.1 °F 76.1 °F 29.93 in East 5.0 mph 16.0 mph 70 % 0.00 in
11:45 86.9 °F 75.9 °F 29.93 in SE 6.0 mph 16.0 mph 70 % 0.00 in
11:50 86.5 °F 76.5 °F 29.94 in East 4.0 mph 16.0 mph 72 % 0.00 in
11:55 86.4 °F 77.0 °F 29.93 in East 3.0 mph 10.0 mph 74 % 0.00 in
12:00 87.3 °F 77.2 °F 29.93 in SSE 11.0 mph 11.0 mph 72 % 0.00 in
12:05 88.0 °F 77.4 °F 29.93 in ESE 7.0 mph 12.0 mph 71 % 0.00 in
12:10 88.5 °F 77.0 °F 29.92 in SE 8.0 mph 12.0 mph 69 % 0.00 in
12:15 89.2 °F 78.1 °F 29.92 in ENE 4.0 mph 12.0 mph 70 % 0.00 in
12:20 90.0 °F 77.0 °F 29.92 in SE 3.0 mph 12.0 mph 66 % 0.00 in
12:25 90.7 °F 77.7 °F 29.92 in SSE 6.0 mph 12.0 mph 66 % 0.00 in
12:30 90.7 °F 76.8 °F 29.92 in South 9.0 mph 13.0 mph 64 % 0.00 in
12:35 88.5 °F 78.3 °F 29.94 in South 5.0 mph 18.0 mph 72 % 0.01 in
12:40 85.5 °F 77.4 °F 29.93 in SSE 1.0 mph 18.0 mph 77 % 0.06 in
12:45 84.2 °F 77.4 °F 29.93 in SE 3.0 mph 18.0 mph 80 % 0.08 in
12:50 84.2 °F 79.2 °F 29.93 in SSW 2.0 mph 9.0 mph 85 % 0.08 in
12:55 84.9 °F 80.2 °F 29.93 in SSW 4.0 mph 10.0 mph 86 % 0.08 in
13:00 85.5 °F 80.1 °F 29.93 in SSE 3.0 mph 10.0 mph 84 % 0.08 in
13:04 85.6 °F 79.2 °F 29.93 in SSE 5.0 mph 10.0 mph 81 % 0.08 in
13:09 86.4 °F 80.6 °F 29.92 in SSW 7.0 mph 10.0 mph 83 % 0.08 in
13:14 87.1 °F 79.0 °F 29.92 in SSE 3.0 mph 9.0 mph 77 % 0.08 in
13:19 88.0 °F 79.0 °F 29.92 in ESE 8.0 mph 9.0 mph 75 % 0.08 in
13:24 88.3 °F 77.4 °F 29.92 in ESE 9.0 mph 10.0 mph 70 % 0.08 in
13:29 88.7 °F 77.2 °F 29.92 in SSE 6.0 mph 14.0 mph 69 % 0.08 in
13:34 89.2 °F 78.6 °F 29.92 in East 5.0 mph 14.0 mph 71 % 0.08 in
13:39 88.5 °F 78.3 °F 29.93 in ESE 10.0 mph 18.0 mph 72 % 0.06 in
13:44 86.7 °F 78.6 °F 29.92 in ESE 4.0 mph 18.0 mph 77 % 0.02 in
13:49 86.5 °F 78.4 °F 29.92 in ESE 14.0 mph 18.0 mph 77 % 0.00 in
13:54 87.1 °F 78.6 °F 29.92 in East 4.0 mph 16.0 mph 76 % 0.00 in
13:59 88.0 °F 79.5 °F 29.91 in East 6.0 mph 16.0 mph 76 % 0.00 in
14:04 88.2 °F 78.8 °F 29.91 in East 7.0 mph 16.0 mph 74 % 0.00 in
14:09 88.3 °F 78.6 °F 29.91 in South 6.0 mph 16.0 mph 73 % 0.00 in
14:14 88.5 °F 78.8 °F 29.91 in ESE 7.0 mph 16.0 mph 73 % 0.00 in
14:19 88.9 °F 79.2 °F 29.91 in SE 3.0 mph 15.0 mph 73 % 0.00 in
14:24 89.2 °F 79.5 °F 29.90 in SE 4.0 mph 15.0 mph 73 % 0.00 in
14:29 89.8 °F 78.6 °F 29.90 in ENE 5.0 mph 15.0 mph 70 % 0.00 in
14:39 89.4 °F 77.9 °F 29.89 in East 12.0 mph 15.0 mph 69 % 0.00 in
14:44 89.8 °F 78.3 °F 29.89 in ESE 9.0 mph 15.0 mph 69 % 0.00 in
14:49 90.3 °F 78.3 °F 29.89 in ESE 5.0 mph 17.0 mph 68 % 0.00 in
14:54 90.5 °F 78.1 °F 29.89 in ESE 7.0 mph 17.0 mph 67 % 0.00 in
14:59 90.7 °F 78.3 °F 29.89 in ESE 9.0 mph 17.0 mph 67 % 0.00 in
15:04 90.5 °F 78.1 °F 29.89 in SE 5.0 mph 15.0 mph 67 % 0.00 in
15:09 90.3 °F 77.9 °F 29.88 in SE 4.0 mph 15.0 mph 67 % 0.00 in
15:14 90.5 °F 78.1 °F 29.88 in ESE 13.0 mph 16.0 mph 67 % 0.00 in
15:19 90.7 °F 76.3 °F 29.89 in ESE 8.0 mph 16.0 mph 63 % 0.00 in
15:24 90.9 °F 75.6 °F 29.89 in East 9.0 mph 16.0 mph 61 % 0.00 in
15:29 90.3 °F 75.6 °F 29.88 in SSE 10.0 mph 14.0 mph 62 % 0.00 in
15:34 90.0 °F 75.2 °F 29.88 in South 7.0 mph 15.0 mph 62 % 0.00 in
15:39 90.0 °F 75.2 °F 29.88 in SE 9.0 mph 15.0 mph 62 % 0.00 in
15:44 90.3 °F 74.5 °F 29.88 in SE 10.0 mph 15.0 mph 60 % 0.00 in
15:49 90.9 °F 74.5 °F 29.88 in SSW 7.0 mph 16.0 mph 59 % 0.00 in
15:54 90.5 °F 74.1 °F 29.88 in SSE 7.0 mph 16.0 mph 59 % 0.00 in
15:59 90.0 °F 74.1 °F 29.88 in East 12.0 mph 16.0 mph 60 % 0.00 in
16:04 89.4 °F 74.1 °F 29.88 in SE 7.0 mph 14.0 mph 61 % 0.00 in
16:09 89.4 °F 74.1 °F 29.88 in ESE 7.0 mph 14.0 mph 61 % 0.00 in
16:14 89.8 °F 75.0 °F 29.88 in SSE 9.0 mph 14.0 mph 62 % 0.00 in
16:19 90.3 °F 75.0 °F 29.88 in ESE 7.0 mph 13.0 mph 61 % 0.00 in
16:24 90.1 °F 74.8 °F 29.88 in SE 5.0 mph 14.0 mph 61 % 0.00 in
16:29 90.1 °F 74.3 °F 29.88 in East 10.0 mph 14.0 mph 60 % 0.00 in
16:34 90.5 °F 74.7 °F 29.87 in ESE 10.0 mph 15.0 mph 60 % 0.00 in
16:39 90.9 °F 75.6 °F 29.87 in SE 7.0 mph 15.0 mph 61 % 0.00 in
16:45 91.0 °F 74.1 °F 29.88 in SW 7.0 mph 15.0 mph 58 % 0.00 in
16:49 91.0 °F 75.2 °F 29.87 in ESE 12.0 mph 18.0 mph 60 % 0.00 in
16:54 91.0 °F 74.7 °F 29.87 in SE 5.0 mph 18.0 mph 59 % 0.00 in
16:59 91.0 °F 75.2 °F 29.87 in ESE 8.0 mph 18.0 mph 60 % 0.00 in
17:04 91.0 °F 75.7 °F 29.87 in SSE 8.0 mph 14.0 mph 61 % 0.00 in
17:09 91.0 °F 75.7 °F 29.87 in ESE 8.0 mph 15.0 mph 61 % 0.00 in
17:14 91.0 °F 75.2 °F 29.87 in SE 10.0 mph 15.0 mph 60 % 0.00 in
17:19 90.9 °F 74.5 °F 29.87 in SW 12.0 mph 15.0 mph 59 % 0.00 in
17:25 90.7 °F 74.8 °F 29.87 in ESE 10.0 mph 14.0 mph 60 % 0.00 in
17:29 90.7 °F 74.8 °F 29.87 in SE 8.0 mph 14.0 mph 60 % 0.00 in
17:35 90.9 °F 74.5 °F 29.87 in South 5.0 mph 14.0 mph 59 % 0.00 in
17:40 90.7 °F 74.3 °F 29.87 in SE 9.0 mph 14.0 mph 59 % 0.00 in
17:45 90.9 °F 75.0 °F 29.87 in ESE 5.0 mph 14.0 mph 60 % 0.00 in
17:47 91.0 °F 74.1 °F 29.86 in SE 5.0 mph 14.0 mph 58 % 0.00 in
17:52 90.9 °F 74.1 °F 29.86 in ESE 9.0 mph 14.0 mph 58 % 0.00 in
18:02 90.3 °F 75.0 °F 29.86 in ESE 4.0 mph 15.0 mph 61 % 0.00 in
18:07 90.0 °F 75.2 °F 29.86 in SSE 11.0 mph 15.0 mph 62 % 0.00 in
18:12 90.1 °F 75.4 °F 29.86 in East 7.0 mph 14.0 mph 62 % 0.00 in
18:17 90.1 °F 75.4 °F 29.86 in SSE 7.0 mph 14.0 mph 62 % 0.00 in
18:22 90.1 °F 75.9 °F 29.86 in SE 4.0 mph 16.0 mph 63 % 0.00 in
18:27 90.0 °F 75.2 °F 29.86 in SSE 10.0 mph 16.0 mph 62 % 0.00 in
18:32 89.6 °F 75.4 °F 29.86 in ESE 10.0 mph 17.0 mph 63 % 0.00 in
18:37 89.8 °F 75.6 °F 29.86 in ESE 9.0 mph 17.0 mph 63 % 0.00 in
18:42 89.4 °F 75.6 °F 29.86 in South 9.0 mph 17.0 mph 64 % 0.00 in
18:47 89.1 °F 77.5 °F 29.86 in SE 5.0 mph 14.0 mph 69 % 0.00 in
18:53 88.5 °F 77.5 °F 29.86 in SE 1.0 mph 14.0 mph 70 % 0.00 in
18:58 88.2 °F 77.5 °F 29.86 in SSW 4.0 mph 14.0 mph 71 % 0.00 in
19:03 87.8 °F 77.7 °F 29.86 in SE 5.0 mph 15.0 mph 72 % 0.00 in
19:08 87.4 °F 77.7 °F 29.86 in SE 5.0 mph 15.0 mph 73 % 0.00 in
19:13 87.3 °F 77.5 °F 29.86 in SSE 5.0 mph 15.0 mph 73 % 0.00 in
19:18 86.9 °F 76.8 °F 29.86 in SSE 4.0 mph 11.0 mph 72 % 0.00 in
19:20 86.7 °F 77.0 °F 29.86 in East 7.0 mph 11.0 mph 73 % 0.00 in
19:25 86.5 °F 76.8 °F 29.87 in SSE 6.0 mph 14.0 mph 73 % 0.00 in
19:30 86.4 °F 77.5 °F 29.87 in ESE 6.0 mph 14.0 mph 75 % 0.00 in
19:35 86.2 °F 77.7 °F 29.87 in South 3.0 mph 14.0 mph 76 % 0.00 in
19:40 86.0 °F 77.9 °F 29.87 in East 2.0 mph 12.0 mph 77 % 0.00 in
19:45 86.0 °F 77.9 °F 29.87 in SE 3.0 mph 8.0 mph 77 % 0.00 in
19:50 85.8 °F 76.6 °F 29.87 in SSE 5.0 mph 11.0 mph 74 % 0.00 in
19:55 85.8 °F 76.1 °F 29.87 in SE 6.0 mph 11.0 mph 73 % 0.00 in
20:00 85.8 °F 76.1 °F 29.88 in ESE 7.0 mph 11.0 mph 73 % 0.00 in
20:05 85.8 °F 76.1 °F 29.87 in SE 4.0 mph 10.0 mph 73 % 0.00 in
20:10 85.6 °F 75.9 °F 29.87 in SE 6.0 mph 13.0 mph 73 % 0.00 in
20:15 85.5 °F 75.7 °F 29.87 in SSW 6.0 mph 14.0 mph 73 % 0.00 in
20:20 85.5 °F 75.7 °F 29.87 in SE 8.0 mph 14.0 mph 73 % 0.00 in
20:25 85.3 °F 76.1 °F 29.87 in ESE 5.0 mph 14.0 mph 74 % 0.00 in
20:30 84.9 °F 75.7 °F 29.87 in SSE 5.0 mph 12.0 mph 74 % 0.00 in
20:35 84.7 °F 75.9 °F 29.87 in SE 6.0 mph 12.0 mph 75 % 0.00 in
20:40 84.7 °F 76.3 °F 29.87 in ESE 5.0 mph 9.0 mph 76 % 0.00 in
20:45 84.6 °F 76.5 °F 29.88 in SE 9.0 mph 9.0 mph 77 % 0.00 in
20:50 84.6 °F 77.0 °F 29.88 in SSE 7.0 mph 10.0 mph 78 % 0.00 in
20:55 84.4 °F 76.5 °F 29.88 in ESE 8.0 mph 12.0 mph 77 % 0.00 in
21:00 84.2 °F 76.3 °F 29.88 in SE 7.0 mph 14.0 mph 77 % 0.00 in
21:05 84.0 °F 76.5 °F 29.88 in SE 11.0 mph 14.0 mph 78 % 0.00 in
21:10 84.0 °F 76.5 °F 29.88 in SE 3.0 mph 14.0 mph 78 % 0.00 in
21:15 83.8 °F 76.6 °F 29.89 in East 9.0 mph 14.0 mph 79 % 0.00 in
21:20 83.7 °F 76.5 °F 29.89 in East 9.0 mph 14.0 mph 79 % 0.00 in
21:25 83.7 °F 76.5 °F 29.89 in South 6.0 mph 14.0 mph 79 % 0.00 in
21:30 83.5 °F 76.6 °F 29.89 in South 3.0 mph 13.0 mph 80 % 0.00 in
21:35 83.5 °F 76.6 °F 29.89 in SE 8.0 mph 13.0 mph 80 % 0.00 in
21:40 83.3 °F 76.8 °F 29.89 in SSE 6.0 mph 13.0 mph 81 % 0.00 in
21:45 83.1 °F 76.6 °F 29.90 in SE 3.0 mph 13.0 mph 81 % 0.00 in
21:50 83.1 °F 76.6 °F 29.90 in East 5.0 mph 11.0 mph 81 % 0.00 in
21:55 83.1 °F 77.0 °F 29.90 in SE 2.0 mph 9.0 mph 82 % 0.00 in
22:01 82.9 °F 76.8 °F 29.91 in SSE 5.0 mph 9.0 mph 82 % 0.00 in
22:06 82.9 °F 77.2 °F 29.90 in ESE 9.0 mph 11.0 mph 83 % 0.00 in
22:11 82.8 °F 77.0 °F 29.91 in SE 3.0 mph 11.0 mph 83 % 0.00 in
22:16 82.8 °F 77.0 °F 29.91 in ESE 3.0 mph 11.0 mph 83 % 0.00 in
22:21 82.6 °F 77.2 °F 29.91 in SE 3.0 mph 9.0 mph 84 % 0.00 in
22:26 82.6 °F 77.2 °F 29.91 in South 3.0 mph 7.0 mph 84 % 0.00 in
22:31 82.4 °F 77.0 °F 29.91 in SE 5.0 mph 7.0 mph 84 % 0.00 in
22:36 82.2 °F 77.2 °F 29.91 in ESE 5.0 mph 8.0 mph 85 % 0.00 in
22:41 82.2 °F 77.2 °F 29.91 in SE 5.0 mph 8.0 mph 85 % 0.00 in
22:46 82.2 °F 77.2 °F 29.91 in SE 2.0 mph 8.0 mph 85 % 0.00 in
22:51 82.2 °F 77.2 °F 29.91 in SE 7.0 mph 8.0 mph 85 % 0.00 in
22:56 82.0 °F 77.4 °F 29.91 in East 3.0 mph 9.0 mph 86 % 0.00 in
23:01 82.0 °F 77.4 °F 29.92 in SE 4.0 mph 9.0 mph 86 % 0.00 in
23:06 82.0 °F 77.4 °F 29.91 in SSE 2.0 mph 9.0 mph 86 % 0.00 in
23:11 82.0 °F 77.4 °F 29.91 in SE 4.0 mph 8.0 mph 86 % 0.00 in
23:16 82.0 °F 77.4 °F 29.91 in SE 3.0 mph 8.0 mph 86 % 0.00 in
23:21 81.9 °F 77.2 °F 29.91 in SSE 4.0 mph 7.0 mph 86 % 0.00 in
23:26 81.9 °F 77.5 °F 29.92 in SE 5.0 mph 8.0 mph 87 % 0.00 in
23:31 81.9 °F 77.5 °F 29.92 in ESE 2.0 mph 8.0 mph 87 % 0.00 in
23:36 81.9 °F 77.5 °F 29.92 in East 6.0 mph 8.0 mph 87 % 0.00 in
23:41 81.9 °F 77.5 °F 29.92 in SE 4.0 mph 10.0 mph 87 % 0.00 in
23:46 81.9 °F 77.5 °F 29.92 in ESE 4.0 mph 10.0 mph 87 % 0.00 in
23:51 81.9 °F 77.5 °F 29.92 in SSE 2.0 mph 10.0 mph 87 % 0.00 in
23:56 81.9 °F 77.5 °F 29.92 in South 3.0 mph 8.0 mph 87 % 0.00 in
Spring, Texas: Villages of Bridgestone
Compliments of Weather Underground - 2.75 mb

Script developed by  Jim McMurry - jmcmurry@mwt.net Adapted for the template by  Wim van der Kuil - Leuven-Template.eu

You find our weather info also at:

UK Metoffice

WeatherCloud

Weather Underground

Mid-South Weather Network

AWEKAS

Citizen Weather Observer Program (CWOP)

HAMweather, WeatherForYou, PWS Weather

Equipment we use:

Weather-station
Davis Vantage Vue

Weather-program
Meteohub

Weather-server
Debian 7.9 x86 (Guest)

Provider
DreamHost

Davis Vantage Vue

Meteohub

Debian 7.9 x86 (Guest)

DreamHost